Time;durP1;ratioP1;P1;durP2;ratioP2;P2;SDS_P1;SDS_P2;PMS_P1;PMS_P2;Temp;Humidity;BMP_temperature;BMP_pressure;BME280_temperature;BME280_humidity;BME280_pressure;Samples;Min_cycle;Max_cycle;Signal;HPM_P1;HPM_P2
2022/06/01 00:02:14;;;;;;;;;3.25;1.00;;;;;17.54;42.09;101303.88;5068316;28;45393;-62
2022/06/01 00:04:39;;;;;;;;;2.00;2.00;;;;;17.53;42.27;101302.16;5065866;28;45461;-62
2022/06/01 00:07:05;;;;;;;;;2.25;2.25;;;;;17.53;42.32;101299.50;5059858;28;45607;-62
2022/06/01 00:09:30;;;;;;;;;4.00;3.50;;;;;17.54;42.30;101301.22;5060960;28;45313;-62
2022/06/01 00:11:56;;;;;;;;;4.00;2.75;;;;;17.54;42.36;101308.38;5061623;28;45425;-62
2022/06/01 00:14:21;;;;;;;;;3.50;3.00;;;;;17.52;42.28;101297.81;5062289;28;45319;-62
2022/06/01 00:16:47;;;;;;;;;4.75;2.00;;;;;17.49;42.42;101308.72;5061008;28;45243;-62
2022/06/01 00:19:13;;;;;;;;;3.00;3.00;;;;;17.44;42.54;101302.06;5061829;28;45845;-62
2022/06/01 00:22:11;;;;;;;;;2.50;2.50;;;;;17.40;42.50;101298.78;5065382;28;45327;-62
2022/06/01 00:24:24;;;;;;;;;3.00;2.00;;;;;17.36;42.68;101297.31;5061435;28;45198;-62
2022/06/01 00:26:50;;;;;;;;;4.00;1.75;;;;;17.33;42.61;101300.25;5061694;28;45413;-62
2022/06/01 00:29:16;;;;;;;;;2.25;2.25;;;;;17.30;42.70;101298.69;5061473;28;46236;-62
2022/06/01 00:31:42;;;;;;;;;2.75;2.25;;;;;17.26;42.85;101305.19;5061986;28;45406;-62
2022/06/01 00:34:07;;;;;;;;;2.00;2.00;;;;;17.24;42.91;101315.13;5061739;28;45283;-62
2022/06/01 00:36:33;;;;;;;;;4.00;2.50;;;;;17.22;42.74;101314.41;5062098;28;45298;-62
2022/06/01 00:38:58;;;;;;;;;5.75;3.00;;;;;17.23;43.01;101312.59;5061204;28;45685;-62
2022/06/01 00:41:24;;;;;;;;;3.00;3.00;;;;;17.23;43.12;101308.13;5061188;28;45320;-62
2022/06/01 00:43:50;;;;;;;;;3.00;2.50;;;;;17.22;43.13;101305.53;5061642;28;45353;-62
2022/06/01 00:46:15;;;;;;;;;3.00;2.25;;;;;17.21;43.17;101309.19;5059056;28;45268;-62
2022/06/01 00:48:52;;;;;;;;;2.00;1.50;;;;;17.19;43.25;101308.47;5061223;28;45321;-62
2022/06/01 00:51:23;;;;;;;;;2.00;2.00;;;;;17.16;43.28;101304.22;5061617;28;45507;-63
2022/06/01 00:53:52;;;;;;;;;3.50;3.00;;;;;17.16;43.33;101306.06;5061411;28;45247;-62
2022/06/01 00:56:26;;;;;;;;;3.00;2.75;;;;;17.14;43.34;101302.63;5061243;28;45462;-62
2022/06/01 00:58:56;;;;;;;;;3.75;2.00;;;;;17.12;43.36;101307.25;5061456;28;46058;-62
2022/06/01 01:01:23;;;;;;;;;3.50;2.75;;;;;17.09;43.39;101307.50;5061262;28;45423;-62
2022/06/01 01:03:55;;;;;;;;;4.00;2.00;;;;;17.04;43.46;101307.84;5061444;28;45291;-62
2022/06/01 01:06:35;;;;;;;;;4.00;2.75;;;;;17.00;43.52;101306.38;5059958;28;45437;-62
2022/06/01 01:09:02;;;;;;;;;2.00;2.00;;;;;16.96;43.60;101305.75;5060690;28;46321;-62
2022/06/01 01:11:33;;;;;;;;;2.00;2.00;;;;;16.91;43.69;101301.78;5060932;28;45313;-62
2022/06/01 01:14:00;;;;;;;;;2.00;2.00;;;;;16.88;43.72;101305.50;5061305;28;45382;-62
2022/06/01 01:16:27;;;;;;;;;2.50;2.50;;;;;16.88;43.85;101302.84;5060763;28;45280;-62
2022/06/01 01:18:54;;;;;;;;;4.50;3.00;;;;;16.89;43.93;101301.88;5060960;28;45365;-62
2022/06/01 01:21:26;;;;;;;;;3.75;2.00;;;;;16.87;43.95;101301.16;5064534;28;45264;-62
2022/06/01 01:23:58;;;;;;;;;3.75;2.00;;;;;16.86;44.17;101298.63;5060840;28;45298;-62
2022/06/01 01:26:25;;;;;;;;;3.00;2.50;;;;;16.82;44.23;101294.47;5060962;28;45519;-62
2022/06/01 01:28:52;;;;;;;;;2.50;2.50;;;;;16.77;44.09;101299.31;5060362;28;45373;-62
2022/06/01 01:31:23;;;;;;;;;1.25;1.00;;;;;16.71;44.29;101282.84;5061008;28;45457;-62
2022/06/01 01:33:51;;;;;;;;;3.75;2.25;;;;;16.70;44.25;101288.28;5060947;28;45365;-62
2022/06/01 01:36:22;;;;;;;;;2.00;2.00;;;;;16.70;44.44;101285.63;5061171;28;45398;-62
2022/06/01 01:39:07;;;;;;;;;4.25;3.00;;;;;16.71;44.49;101290.84;5060508;28;45391;-62
2022/06/01 01:41:50;;;;;;;;;2.00;1.00;;;;;16.73;44.63;101293.38;5060425;28;45279;-62
2022/06/01 01:44:18;;;;;;;;;5.00;4.00;;;;;16.73;44.70;101293.38;5060845;28;45446;-62
2022/06/01 01:46:47;;;;;;;;;3.50;3.25;;;;;16.73;44.58;101298.69;5057428;28;45565;-62
2022/06/01 01:49:25;;;;;;;;;4.00;3.00;;;;;16.73;44.97;101306.66;5060588;28;45646;-62
2022/06/01 01:51:54;;;;;;;;;3.00;3.00;;;;;16.73;44.68;101302.19;5057369;28;45392;-63
2022/06/01 01:54:19;;;;;;;;;3.00;3.00;;;;;16.71;44.79;101301.47;5059611;28;45482;-62
2022/06/01 01:57:14;;;;;;;;;3.50;3.25;;;;;16.65;44.94;101301.91;5053384;28;45304;-62
2022/06/01 01:59:51;;;;;;;;;3.00;3.00;;;;;16.60;45.01;101297.91;5052303;28;46050;-62
2022/06/01 02:02:50;;;;;;;;;3.75;3.25;;;;;16.57;45.07;101298.97;5056611;28;45404;-62
2022/06/01 02:08:34;;;;;;;;;2.25;2.25;;;;;16.51;45.14;101280.84;5052014;28;45332;-62
2022/06/01 02:13:52;;;;;;;;;5.75;3.00;;;;;16.48;45.31;101278.41;5047889;28;45280;-62
2022/06/01 02:16:21;;;;;;;;;3.50;3.50;;;;;16.44;45.20;101287.59;5045024;28;45347;-62
2022/06/01 02:18:51;;;;;;;;;5.00;5.00;;;;;16.43;45.32;101276.09;5047706;28;45498;-62
2022/06/01 02:21:25;;;;;;;;;3.00;3.00;;;;;16.43;45.48;101277.88;5049845;28;46146;-62
2022/06/01 02:23:52;;;;;;;;;3.25;2.50;;;;;16.45;45.55;101279.47;5048659;28;45500;-62
2022/06/01 02:26:18;;;;;;;;;3.25;3.25;;;;;16.47;45.67;101274.03;5052915;28;45426;-62
2022/06/01 02:28:46;;;;;;;;;6.75;4.50;;;;;16.48;45.62;101271.25;5048479;28;45462;-62
2022/06/01 02:31:15;;;;;;;;;5.00;3.25;;;;;16.49;45.91;101269.44;5053237;28;45544;-62
2022/06/01 02:33:44;;;;;;;;;6.50;5.00;;;;;16.47;45.88;101261.59;5047587;28;45320;-63
2022/06/01 02:36:14;;;;;;;;;3.00;3.00;;;;;16.44;45.99;101267.16;5047608;28;45442;-63
2022/06/01 02:38:45;;;;;;;;;4.00;4.00;;;;;16.37;45.80;101271.22;5042469;28;45223;-63
2022/06/01 02:42:25;;;;;;;;;4.50;3.00;;;;;16.30;46.13;101270.00;5054201;28;46090;-63
2022/06/01 02:43:56;;;;;;;;;6.00;4.00;;;;;16.26;46.02;101272.97;5054461;28;45452;-63
2022/06/01 02:46:23;;;;;;;;;6.00;4.50;;;;;16.24;46.24;101278.41;5051111;28;45228;-62
2022/06/01 02:48:49;;;;;;;;;5.25;3.75;;;;;16.21;46.34;101268.03;5057716;28;45530;-63
2022/06/01 02:51:17;;;;;;;;;6.75;5.00;;;;;16.15;46.40;101268.47;5057511;28;46192;-63
2022/06/01 02:53:42;;;;;;;;;2.00;2.00;;;;;16.09;46.46;101269.78;5057601;28;45466;-63
2022/06/01 02:56:08;;;;;;;;;4.00;3.00;;;;;16.08;46.53;101267.22;5056605;28;45481;-63
2022/06/01 02:58:34;;;;;;;;;6.25;3.25;;;;;16.09;46.61;101275.09;5057596;28;45366;-63
2022/06/01 03:01:01;;;;;;;;;4.00;3.75;;;;;16.10;46.73;101266.16;5056200;28;45962;-63
2022/06/01 03:03:26;;;;;;;;;6.00;5.00;;;;;16.13;46.72;101265.94;5057425;28;45379;-63
2022/06/01 03:05:52;;;;;;;;;6.75;5.75;;;;;16.15;46.62;101260.50;5048444;28;45589;-62
2022/06/01 03:08:17;;;;;;;;;4.75;4.00;;;;;16.13;46.87;101255.31;5053895;28;45261;-63
2022/06/01 03:10:44;;;;;;;;;4.75;4.75;;;;;16.11;46.92;101257.22;5053187;28;45860;-62
2022/06/01 03:13:10;;;;;;;;;5.00;5.00;;;;;16.11;47.02;101257.22;5053570;28;45426;-63
2022/06/01 03:15:36;;;;;;;;;6.00;6.00;;;;;16.06;46.75;101258.53;5054040;28;45422;-62
2022/06/01 03:18:02;;;;;;;;;8.00;6.25;;;;;16.02;47.06;101259.69;5048116;28;45494;-62
2022/06/01 03:20:29;;;;;;;;;8.00;7.00;;;;;15.97;46.92;101265.38;5051350;28;46052;-62
2022/06/01 03:22:55;;;;;;;;;7.00;7.00;;;;;15.94;47.01;101265.59;5054823;28;45420;-62
2022/06/01 03:25:23;;;;;;;;;7.50;7.50;;;;;15.89;47.03;101268.59;5052698;28;45439;-64
2022/06/01 03:27:50;;;;;;;;;11.00;7.75;;;;;15.85;47.21;101272.41;5055130;28;45447;-62
2022/06/01 03:30:17;;;;;;;;;7.25;7.25;;;;;15.84;47.23;101277.84;5052120;28;45289;-62
2022/06/01 03:32:44;;;;;;;;;12.00;7.75;;;;;15.85;47.12;101272.41;5055821;28;45463;-63
2022/06/01 03:35:11;;;;;;;;;7.25;6.00;;;;;15.86;47.35;101273.25;5051970;28;45478;-63
2022/06/01 03:37:37;;;;;;;;;8.00;6.75;;;;;15.86;47.13;101274.13;5056662;28;45419;-63
2022/06/01 03:40:03;;;;;;;;;11.25;8.00;;;;;15.83;47.43;101273.50;5051297;28;45795;-63
2022/06/01 03:42:30;;;;;;;;;8.50;6.00;;;;;15.82;47.30;101277.13;5056662;28;45301;-62
2022/06/01 03:47:40;;;;;;;;;8.00;7.25;;;;;15.82;47.43;101272.66;5044452;28;45262;-62
2022/06/01 03:50:08;;;;;;;;;11.50;8.75;;;;;15.81;47.33;101278.94;5055964;28;45268;-62
2022/06/01 03:52:34;;;;;;;;;6.00;6.00;;;;;15.81;47.48;101283.41;5059556;28;45351;-62
2022/06/01 03:54:59;;;;;;;;;7.75;7.75;;;;;15.78;47.62;101284.44;5056081;28;45438;-62
2022/06/01 03:57:24;;;;;;;;;6.50;6.50;;;;;15.75;47.58;101276.72;5059700;28;45265;-62
2022/06/01 03:59:50;;;;;;;;;9.00;7.00;;;;;15.76;47.80;101293.50;5057110;28;45296;-63
2022/06/01 04:02:15;;;;;;;;;6.75;6.75;;;;;15.76;47.85;101291.69;5041796;28;45280;-62
2022/06/01 04:04:41;;;;;;;;;8.00;5.00;;;;;15.77;47.91;101288.06;5056460;28;45387;-62
2022/06/01 04:07:06;;;;;;;;;9.25;7.00;;;;;15.78;47.62;101295.06;5049682;28;45525;-62
2022/06/01 04:09:32;;;;;;;;;9.00;7.00;;;;;15.78;47.90;101297.72;5051312;28;45311;-62
2022/06/01 04:11:58;;;;;;;;;7.75;7.00;;;;;15.80;47.90;101297.63;5056275;28;45604;-62
2022/06/01 04:14:24;;;;;;;;;9.75;7.00;;;;;15.79;48.14;101304.75;5041518;28;45308;-62
2022/06/01 04:16:50;;;;;;;;;10.00;6.75;;;;;15.80;47.96;101302.94;5042178;28;45277;-62
2022/06/01 04:19:15;;;;;;;;;10.00;7.00;;;;;15.79;47.82;101299.41;5041941;28;45269;-62
2022/06/01 04:21:44;;;;;;;;;9.50;8.50;;;;;15.81;48.22;101308.16;5042146;28;45406;-62
2022/06/01 04:24:13;;;;;;;;;11.00;8.50;;;;;15.84;48.01;101304.41;5041881;28;45317;-62
2022/06/01 04:26:39;;;;;;;;;8.25;7.25;;;;;15.85;48.27;101309.63;5041899;28;45410;-62
2022/06/01 04:29:05;;;;;;;;;10.50;9.50;;;;;15.84;48.26;101309.72;5041676;28;46469;-62
2022/06/01 04:31:31;;;;;;;;;9.50;7.75;;;;;15.81;48.23;101309.97;5041976;28;45248;-62
2022/06/01 04:33:57;;;;;;;;;10.00;7.50;;;;;15.75;48.23;101313.91;5042065;28;45442;-62
2022/06/01 04:36:22;;;;;;;;;11.25;8.50;;;;;15.71;48.17;101317.72;5042023;28;45349;-63
2022/06/01 04:38:48;;;;;;;;;11.75;10.00;;;;;15.67;48.32;101316.25;5041331;28;46145;-62
2022/06/01 04:41:13;;;;;;;;;8.75;6.00;;;;;15.60;48.38;101315.81;5041644;28;46735;-62
2022/06/01 04:43:39;;;;;;;;;10.25;8.50;;;;;15.56;48.35;101319.66;5041989;28;45568;-62
2022/06/01 04:46:04;;;;;;;;;16.50;8.00;;;;;15.54;48.62;101324.19;5029292;28;45228;-62
2022/06/01 04:48:30;;;;;;;;;9.00;7.75;;;;;15.55;48.39;101327.69;5040844;28;46042;-62
2022/06/01 04:50:58;;;;;;;;;7.25;6.25;;;;;15.57;48.76;101334.63;5041569;28;45476;-62
2022/06/01 04:53:24;;;;;;;;;8.50;8.25;;;;;15.58;48.83;101324.84;5041386;28;45360;-62
2022/06/01 04:55:50;;;;;;;;;12.75;9.75;;;;;15.57;48.77;101328.47;5057733;28;45671;-62
2022/06/01 04:58:16;;;;;;;;;11.50;11.00;;;;;15.56;48.89;101334.72;5061351;28;46253;-63
2022/06/01 05:00:43;;;;;;;;;11.25;9.75;;;;;15.57;49.07;101339.94;5061380;28;45282;-63
2022/06/01 05:03:09;;;;;;;;;10.50;9.00;;;;;15.60;48.93;101344.16;5047796;28;45504;-63
2022/06/01 05:05:37;;;;;;;;;11.50;9.50;;;;;15.64;49.10;101345.69;5061407;28;45347;-62
2022/06/01 05:08:05;;;;;;;;;13.50;9.75;;;;;15.68;49.30;101343.66;5061386;28;45228;-63
2022/06/01 05:10:31;;;;;;;;;11.00;10.25;;;;;15.69;48.95;101348.00;5060897;28;45325;-62
2022/06/01 05:12:56;;;;;;;;;12.75;11.00;;;;;15.73;49.22;101352.16;5061510;28;45369;-62
2022/06/01 05:15:22;;;;;;;;;10.50;8.75;;;;;15.75;49.35;101350.25;5061390;28;45570;-62
2022/06/01 05:17:47;;;;;;;;;14.00;10.00;;;;;15.78;49.55;101357.97;5061379;28;45264;-62
2022/06/01 05:20:13;;;;;;;;;9.00;8.00;;;;;15.85;49.39;101357.44;5061159;28;45324;-62
2022/06/01 05:22:40;;;;;;;;;9.25;9.00;;;;;15.93;49.31;101354.22;5061323;28;45433;-62
2022/06/01 05:25:07;;;;;;;;;11.00;8.25;;;;;15.98;49.55;101349.44;5060709;28;45319;-62
2022/06/01 05:27:33;;;;;;;;;9.75;8.00;;;;;16.03;49.22;101349.94;5061291;28;45304;-62
2022/06/01 05:29:58;;;;;;;;;7.75;5.75;;;;;16.12;49.57;101351.09;5074149;28;45338;-62
2022/06/01 05:32:24;;;;;;;;;12.50;8.75;;;;;16.23;49.39;101351.16;5059843;28;45275;-62
2022/06/01 05:34:50;;;;;;;;;13.00;8.00;;;;;16.33;49.33;101356.66;5060979;28;45308;-62
2022/06/01 05:37:16;;;;;;;;;12.25;6.00;;;;;16.39;49.50;101350.88;5060989;28;45225;-62
2022/06/01 05:39:41;;;;;;;;;6.50;6.00;;;;;16.43;49.37;101350.56;5060737;28;45221;-62
2022/06/01 05:42:08;;;;;;;;;6.00;6.00;;;;;16.45;49.39;101353.94;5066121;28;45153;-62
2022/06/01 05:44:33;;;;;;;;;5.50;5.50;;;;;16.51;49.42;101359.75;5060878;28;45293;-62
2022/06/01 05:47:01;;;;;;;;;11.00;6.75;;;;;16.54;49.31;101348.91;5065143;28;46058;-62
2022/06/01 05:49:27;;;;;;;;;9.75;7.25;;;;;16.59;49.29;101349.38;5060614;28;45310;-62
2022/06/01 05:51:53;;;;;;;;;12.25;7.50;;;;;16.62;49.27;101339.38;5068232;28;45320;-62
2022/06/01 05:54:19;;;;;;;;;3.75;3.75;;;;;16.65;49.48;101340.97;5060333;28;45399;-62
2022/06/01 05:56:45;;;;;;;;;8.25;6.50;;;;;16.70;49.28;101350.31;5063080;28;45228;-62
2022/06/01 05:59:11;;;;;;;;;8.75;7.00;;;;;16.72;49.34;101334.25;5060298;28;45299;-62
2022/06/01 06:01:37;;;;;;;;;8.00;7.00;;;;;16.77;49.40;101344.56;5060843;28;45380;-62
2022/06/01 06:04:03;;;;;;;;;6.50;6.50;;;;;16.79;49.32;101356.75;5059331;28;45545;-62
2022/06/01 06:06:29;;;;;;;;;7.75;7.75;;;;;16.84;49.32;101353.78;5060434;28;45316;-62
2022/06/01 06:09:00;;;;;;;;;11.00;11.00;;;;;16.88;49.22;101357.88;5063439;27;45565;-62
2022/06/01 06:11:28;;;;;;;;;8.00;7.00;;;;;16.94;49.16;101350.28;5060433;28;45225;-63
2022/06/01 06:13:54;;;;;;;;;5.50;5.00;;;;;17.02;49.11;101355.88;5060619;28;45419;-62
2022/06/01 06:16:21;;;;;;;;;8.50;7.00;;;;;17.08;49.24;101359.88;5062696;28;45482;-62
2022/06/01 06:18:46;;;;;;;;;10.50;10.00;;;;;17.14;49.22;101353.22;5063709;28;45327;-63
2022/06/01 06:21:12;;;;;;;;;8.00;8.00;;;;;17.21;49.06;101349.97;5064012;28;45299;-62
2022/06/01 06:23:38;;;;;;;;;7.25;6.75;;;;;17.30;48.99;101351.94;5063989;28;45189;-62
2022/06/01 06:26:04;;;;;;;;;6.75;5.75;;;;;17.42;48.94;101349.28;5062612;28;45417;-64
2022/06/01 06:28:30;;;;;;;;;5.00;5.00;;;;;17.45;48.90;101349.03;5061631;28;45236;-64
2022/06/01 06:30:56;;;;;;;;;8.75;8.00;;;;;17.49;49.06;101350.50;5063766;28;45529;-68
2022/06/01 06:33:22;;;;;;;;;8.00;6.75;;;;;17.53;48.55;101347.44;5057873;28;45571;-67
2022/06/01 06:35:59;;;;;;;;;3.00;3.00;;;;;17.61;48.71;101354.84;5067980;28;45433;-65
2022/06/01 06:38:29;;;;;;;;;1.00;1.00;;;;;17.67;48.46;101365.00;5057384;28;45413;-68
2022/06/01 06:40:57;;;;;;;;;2.00;2.00;;;;;17.73;48.35;101361.91;5062008;28;45298;-66
2022/06/01 06:43:24;;;;;;;;;2.75;1.50;;;;;17.77;48.40;101355.38;5063448;28;45366;-65
2022/06/01 06:45:55;;;;;;;;;3.00;1.75;;;;;17.81;48.07;101359.47;5057949;28;46095;-65
2022/06/01 06:48:21;;;;;;;;;4.25;2.25;;;;;17.83;47.90;101365.53;5063085;28;45377;-65
2022/06/01 06:50:46;;;;;;;;;2.50;2.25;;;;;17.88;47.67;101374.97;5063029;28;45372;-66
2022/06/01 06:53:12;;;;;;;;;2.00;1.75;;;;;17.87;47.40;101373.28;5061980;28;45264;-66
2022/06/01 06:55:38;;;;;;;;;2.25;2.25;;;;;17.87;47.54;101371.47;5062678;28;45722;-66
2022/06/01 06:58:07;;;;;;;;;3.25;3.25;;;;;17.94;47.55;101369.16;5063112;28;45301;-65
2022/06/01 07:00:32;;;;;;;;;4.25;3.00;;;;;18.00;47.35;101364.16;5062037;28;45672;-65
2022/06/01 07:02:58;;;;;;;;;4.00;3.00;;;;;18.01;47.42;101370.34;5062471;28;45299;-66
2022/06/01 07:08:08;;;;;;;;;6.50;5.00;;;;;17.97;47.16;101371.56;5062409;28;45338;-66
2022/06/01 07:10:33;;;;;;;;;6.25;5.00;;;;;17.95;47.16;101374.38;5062417;28;45478;-66
2022/06/01 07:12:59;;;;;;;;;6.50;5.00;;;;;18.00;47.09;101374.84;5056369;28;45244;-66
2022/06/01 07:15:25;;;;;;;;;4.50;4.00;;;;;18.09;46.85;101375.94;5061145;28;45418;-66
2022/06/01 07:17:51;;;;;;;;;6.75;5.00;;;;;18.12;47.16;101379.19;5062259;28;45235;-65
2022/06/01 07:20:17;;;;;;;;;4.50;4.25;;;;;18.17;46.76;101377.94;5061322;28;45448;-65
2022/06/01 07:22:43;;;;;;;;;3.00;3.00;;;;;18.21;46.96;101374.94;5063842;28;45480;-67
2022/06/01 07:25:08;;;;;;;;;2.75;2.50;;;;;18.23;46.67;101377.47;5062406;28;46062;-66
2022/06/01 07:27:36;;;;;;;;;5.00;3.25;;;;;18.25;46.92;101373.72;5056871;28;45651;-66
2022/06/01 07:30:06;;;;;;;;;4.00;3.00;;;;;18.25;46.93;101367.53;5058307;28;45495;-61
2022/06/01 07:32:31;;;;;;;;;4.00;4.00;;;;;18.25;46.62;101368.38;5062357;28;45442;-67
2022/06/01 07:34:57;;;;;;;;;6.00;3.75;;;;;18.29;46.83;101371.63;5062606;28;45218;-61
2022/06/01 07:43:06;;;;;;;;;4.00;3.75;;;;;18.37;46.77;101374.53;5062450;28;45235;-61
2022/06/01 07:45:36;;;;;;;;;5.50;3.75;;;;;18.44;46.30;101374.88;5062323;28;45356;-55
2022/06/01 07:48:04;;;;;;;;;6.00;4.25;;;;;18.48;46.67;101379.81;5061507;28;45235;-56
2022/06/01 07:50:29;;;;;;;;;3.50;3.00;;;;;18.47;46.50;101383.47;5062439;28;45430;-66
2022/06/01 07:52:55;;;;;;;;;3.75;3.00;;;;;18.42;46.27;101383.00;5062258;28;45327;-65
2022/06/01 07:55:20;;;;;;;;;4.00;4.00;;;;;18.42;46.25;101383.84;5050632;28;45589;-56
2022/06/01 07:57:46;;;;;;;;;4.25;4.00;;;;;18.45;46.42;101384.56;5050503;28;45467;-65
2022/06/01 08:00:12;;;;;;;;;6.75;4.75;;;;;18.48;46.53;101382.47;5044639;28;45228;-59
2022/06/01 08:02:38;;;;;;;;;8.75;6.25;;;;;18.52;46.05;101380.44;5043652;28;45769;-65
2022/06/01 08:05:05;;;;;;;;;10.00;9.00;;;;;18.55;46.05;101381.00;5026384;28;46281;-66
2022/06/01 08:07:31;;;;;;;;;11.50;8.00;;;;;18.54;46.35;101384.66;5042370;28;45229;-65
2022/06/01 08:09:56;;;;;;;;;6.00;4.75;;;;;18.52;46.40;101378.59;5023867;28;45347;-63
2022/06/01 08:15:08;;;;;;;;;3.25;3.25;;;;;18.52;46.03;101375.94;5050389;28;45742;-62
2022/06/01 08:17:34;;;;;;;;;5.25;4.50;;;;;18.57;45.92;101380.91;5056553;28;45237;-62
2022/06/01 08:19:59;;;;;;;;;7.00;7.00;;;;;18.61;45.90;101372.50;5048078;28;45261;-76
2022/06/01 08:22:24;;;;;;;;;7.00;7.00;;;;;18.65;46.19;101373.97;5048688;28;45256;-63
2022/06/01 08:24:50;;;;;;;;;7.50;5.25;;;;;18.69;46.08;101378.06;5046396;28;45589;-60
2022/06/01 08:27:15;;;;;;;;;6.25;3.75;;;;;18.71;46.25;101374.44;5039821;28;45527;-56
2022/06/01 08:29:41;;;;;;;;;3.00;3.00;;;;;18.75;45.86;101376.72;5053293;28;45259;-58
2022/06/01 08:32:07;;;;;;;;;6.75;6.50;;;;;18.73;46.08;101378.69;5047457;28;45672;-59
2022/06/01 08:34:35;;;;;;;;;3.75;3.75;;;;;18.75;45.78;101379.41;5052379;28;46514;-59
2022/06/01 08:37:01;;;;;;;;;4.75;4.00;;;;;18.80;46.00;101376.31;5029864;28;45315;-59
2022/06/01 08:39:26;;;;;;;;;4.75;4.00;;;;;18.79;45.71;101378.16;5050957;28;45304;-59
2022/06/01 08:41:54;;;;;;;;;5.00;3.50;;;;;18.84;45.91;101380.44;5032536;28;45419;-59
2022/06/01 08:44:25;;;;;;;;;3.00;3.00;;;;;18.87;45.94;101373.00;5051556;28;45992;-59
2022/06/01 08:46:58;;;;;;;;;11.50;10.75;;;;;18.91;45.79;101366.44;5048568;28;45388;-59
2022/06/01 08:49:28;;;;;;;;;2.00;2.00;;;;;18.94;45.90;101373.34;5049405;28;45297;-59
2022/06/01 08:51:54;;;;;;;;;2.00;2.00;;;;;18.96;45.88;101368.75;5050688;28;45336;-59
2022/06/01 08:54:21;;;;;;;;;2.00;2.00;;;;;19.00;45.63;101372.00;5052083;28;45480;-59
2022/06/01 08:56:53;;;;;;;;;3.00;2.00;;;;;19.04;45.70;101368.94;5061151;28;45492;-59
2022/06/01 08:59:19;;;;;;;;;4.00;3.00;;;;;19.08;45.44;101372.19;5061165;28;45386;-58
2022/06/01 09:02:05;;;;;;;;;4.50;3.00;;;;;19.11;45.73;101367.41;5061141;28;45394;-58
2022/06/01 09:04:47;;;;;;;;;2.75;2.00;;;;;19.19;45.08;101377.44;5053775;28;47966;-62
2022/06/01 09:07:28;;;;;;;;;3.00;3.00;;;;;19.24;45.34;101376.09;5059227;28;45553;-59
2022/06/01 09:10:36;;;;;;;;;3.50;2.75;;;;;19.34;45.71;101365.44;5060405;28;45331;-58
2022/06/01 09:13:09;;;;;;;;;2.50;1.50;;;;;19.41;45.18;101376.47;5058261;28;45331;-59
2022/06/01 09:16:06;;;;;;;;;5.75;2.75;;;;;19.45;45.44;101384.09;5052664;28;45305;-59
2022/06/01 09:18:47;;;;;;;;;4.75;3.00;;;;;19.43;45.42;101382.50;5057356;28;45307;-58
2022/06/01 09:24:31;;;;;;;;;5.25;3.75;;;;;19.55;45.31;101373.44;5059771;28;45219;-58
2022/06/01 09:26:58;;;;;;;;;2.50;2.50;;;;;19.60;45.26;101371.25;5080735;27;46986;-59
2022/06/01 09:29:27;;;;;;;;;3.00;3.00;;;;;19.64;44.62;101375.34;5056696;28;45639;-59
2022/06/01 09:32:06;;;;;;;;;4.00;4.00;;;;;19.72;45.00;101377.34;5059495;28;45444;-59
2022/06/01 09:34:37;;;;;;;;;1.00;1.00;;;;;19.78;44.99;101380.34;5057040;28;45457;-59
2022/06/01 09:37:06;;;;;;;;;2.00;2.00;;;;;19.77;44.58;101384.00;5059184;28;46559;-59
2022/06/01 09:39:33;;;;;;;;;4.00;3.00;;;;;19.67;44.54;101380.44;5059869;28;45301;-59
2022/06/01 09:42:23;;;;;;;;;2.75;2.75;;;;;19.76;44.70;101387.66;5058331;28;45318;-59
2022/06/01 09:44:49;;;;;;;;;4.25;2.50;;;;;19.87;44.92;101389.38;5061091;28;45215;-59
2022/06/01 09:47:27;;;;;;;;;3.25;1.75;;;;;19.97;44.57;101386.72;5060020;28;45314;-59
2022/06/01 09:49:56;;;;;;;;;2.25;2.25;;;;;20.08;44.61;101381.28;5056571;28;45619;-60
2022/06/01 09:52:38;;;;;;;;;2.00;2.00;;;;;20.10;44.47;101375.78;5060644;28;45261;-60
2022/06/01 09:55:14;;;;;;;;;2.75;2.00;;;;;20.16;44.50;101380.59;5055301;28;45440;-60
2022/06/01 09:57:39;;;;;;;;;6.50;2.00;;;;;20.25;44.48;101374.41;5036258;28;45388;-60
2022/06/01 10:06:18;;;;;;;;;2.00;1.25;;;;;20.63;43.81;101371.81;5046360;28;45294;-61
2022/06/01 10:08:57;;;;;;;;;2.00;2.00;;;;;20.71;44.48;101364.91;5047490;28;45279;-60
2022/06/01 10:11:28;;;;;;;;;1.75;1.75;;;;;20.77;44.03;101372.34;5053182;28;45438;-60
2022/06/01 10:14:11;;;;;;;;;2.00;1.00;;;;;20.71;43.85;101368.44;5052796;28;45460;-60
2022/06/01 10:16:54;;;;;;;;;2.50;2.50;;;;;20.76;43.78;101368.84;5057008;28;45591;-60
2022/06/01 10:19:31;;;;;;;;;6.75;6.50;;;;;20.68;43.72;101371.38;5031576;28;47061;-60
2022/06/01 10:22:03;;;;;;;;;2.75;2.75;;;;;20.60;43.44;101372.06;5048254;28;45333;-71
2022/06/01 10:24:34;;;;;;;;;4.75;3.00;;;;;20.53;43.39;101368.25;5045306;28;45534;-68
2022/06/01 10:27:02;;;;;;;;;2.00;2.00;;;;;20.44;43.74;101371.78;5054899;28;45352;-66
2022/06/01 10:29:43;;;;;;;;;2.00;2.00;;;;;20.34;43.14;101358.38;5057749;28;45250;-60
2022/06/01 10:32:16;;;;;;;;;2.00;2.00;;;;;20.46;43.70;101368.97;5045935;28;45448;-58
2022/06/01 10:34:45;;;;;;;;;1.00;1.00;;;;;20.62;43.61;101370.13;5058756;28;45464;-60
2022/06/01 10:37:19;;;;;;;;;2.00;2.00;;;;;20.79;43.11;101365.91;5057668;28;45309;-48
2022/06/01 10:40:11;;;;;;;;;2.75;2.00;;;;;20.96;43.48;101358.13;5058302;28;45250;-51
2022/06/01 10:45:34;;;;;;;;;2.50;2.50;;;;;21.26;42.81;101351.72;5044290;28;45320;-47
2022/06/01 10:48:25;;;;;;;;;1.50;1.50;;;;;21.34;42.90;101352.72;5053192;28;45298;-47
2022/06/01 10:50:54;;;;;;;;;3.00;2.00;;;;;21.35;42.58;101350.88;5058677;28;45442;-53
2022/06/01 10:53:38;;;;;;;;;5.25;3.00;;;;;21.42;42.60;101354.66;5056690;28;45451;-52
2022/06/01 10:56:03;;;;;;;;;1.50;1.50;;;;;21.53;42.39;101351.78;5058174;28;45408;-51
2022/06/01 10:58:30;;;;;;;;;4.00;3.00;;;;;21.53;42.54;101354.47;5057157;28;45501;-48
2022/06/01 11:01:28;;;;;;;;;1.00;1.00;;;;;21.45;42.20;101347.16;5058430;28;45408;-51
2022/06/01 11:04:21;;;;;;;;;3.75;2.25;;;;;21.46;42.19;101340.81;5040685;28;45491;-48
2022/06/01 11:07:11;;;;;;;;;4.00;2.00;;;;;21.42;42.25;101349.31;5047175;28;45372;-49
2022/06/01 11:10:00;;;;;;;;;2.50;2.50;;;;;21.55;42.22;101338.22;5054008;28;45320;-51
2022/06/01 11:13:00;;;;;;;;;2.00;1.00;;;;;21.72;42.00;101340.13;5041196;28;45411;-50
2022/06/01 11:15:37;;;;;;;;;5.25;3.00;;;;;21.88;41.83;101339.47;5037573;28;45395;-47
2022/06/01 11:18:26;;;;;;;;;1.50;1.00;;;;;22.00;41.79;101336.47;5044067;28;45364;-48
2022/06/01 11:21:03;;;;;;;;;2.00;2.00;;;;;22.07;41.77;101339.38;5044006;28;45655;-48
2022/06/01 11:23:50;;;;;;;;;3.25;1.75;;;;;22.11;41.50;101331.91;5040661;28;45400;-56
2022/06/01 11:26:27;;;;;;;;;5.00;4.50;;;;;22.10;41.57;101331.06;5044893;28;45302;-53
2022/06/01 11:28:58;;;;;;;;;2.25;1.50;;;;;22.10;41.31;101333.72;5048382;28;45198;-51
2022/06/01 11:31:27;;;;;;;;;3.00;1.75;;;;;22.03;41.39;101330.78;5045517;28;45265;-52
2022/06/01 11:34:14;;;;;;;;;2.00;2.00;;;;;22.01;41.24;101334.63;5037152;28;45660;-56
2022/06/01 11:36:51;;;;;;;;;2.75;1.50;;;;;21.98;40.86;101318.84;5041828;28;45322;-57
2022/06/01 11:39:47;;;;;;;;;2.00;2.00;;;;;21.98;40.99;101325.03;5041902;28;45310;-58
2022/06/01 11:42:27;;;;;;;;;2.75;1.50;;;;;21.85;40.84;101334.44;5043271;28;45246;-58
2022/06/01 11:45:01;;;;;;;;;2.00;2.00;;;;;21.82;40.75;101330.22;5042134;28;46003;-57
2022/06/01 11:47:36;;;;;;;;;1.75;1.25;;;;;21.90;40.94;101318.75;5042244;28;45321;-58
2022/06/01 11:50:10;;;;;;;;;1.50;1.50;;;;;21.95;40.58;101314.59;5040392;28;45252;-55
2022/06/01 11:52:57;;;;;;;;;2.75;2.00;;;;;22.06;40.39;101312.72;5042315;28;45503;-54
2022/06/01 11:55:39;;;;;;;;;5.00;2.00;;;;;22.18;40.57;101316.88;5054258;28;46204;-56
2022/06/01 11:58:04;;;;;;;;;2.50;2.50;;;;;22.30;40.49;101313.00;5062214;28;45434;-55
2022/06/01 12:00:48;;;;;;;;;0.50;0.00;;;;;22.42;40.54;101306.38;5062370;28;45418;-56
2022/06/01 12:03:19;;;;;;;;;3.00;3.00;;;;;22.34;40.11;101308.16;5061415;28;45330;-56
2022/06/01 12:06:04;;;;;;;;;0.75;0.75;;;;;22.29;40.22;101316.66;5061961;28;46057;-56
2022/06/01 12:09:16;;;;;;;;;0.50;0.50;;;;;22.32;40.09;101310.97;5051540;28;45535;-56
2022/06/01 12:11:47;;;;;;;;;5.00;5.00;;;;;22.39;39.73;101314.75;5036223;28;45426;-57